sensor_id;sensor_type;location;lat;lon;timestamp;P1;durP1;ratioP1;P2;durP2;ratioP2
23129;SDS011;11734;51.046;13.778;2024-02-14T00:01:32;7.37;;;5.77;;
23129;SDS011;11734;51.046;13.778;2024-02-14T00:04:00;6.27;;;5.50;;
23129;SDS011;11734;51.046;13.778;2024-02-14T00:06:27;6.47;;;5.43;;
23129;SDS011;11734;51.046;13.778;2024-02-14T00:08:55;7.17;;;5.93;;
23129;SDS011;11734;51.046;13.778;2024-02-14T00:11:22;7.50;;;5.90;;
23129;SDS011;11734;51.046;13.778;2024-02-14T00:13:50;7.20;;;5.93;;
23129;SDS011;11734;51.046;13.778;2024-02-14T00:16:17;6.23;;;5.20;;
23129;SDS011;11734;51.046;13.778;2024-02-14T00:18:45;6.27;;;5.53;;
23129;SDS011;11734;51.046;13.778;2024-02-14T00:21:13;7.20;;;5.47;;
23129;SDS011;11734;51.046;13.778;2024-02-14T00:23:40;6.93;;;5.60;;
23129;SDS011;11734;51.046;13.778;2024-02-14T00:26:07;5.87;;;4.70;;
23129;SDS011;11734;51.046;13.778;2024-02-14T00:28:35;6.67;;;5.23;;
23129;SDS011;11734;51.046;13.778;2024-02-14T00:31:02;5.67;;;4.73;;
23129;SDS011;11734;51.046;13.778;2024-02-14T00:33:30;6.67;;;5.03;;
23129;SDS011;11734;51.046;13.778;2024-02-14T00:35:58;6.17;;;5.07;;
23129;SDS011;11734;51.046;13.778;2024-02-14T00:38:25;6.37;;;4.90;;
23129;SDS011;11734;51.046;13.778;2024-02-14T00:40:52;6.97;;;5.40;;
23129;SDS011;11734;51.046;13.778;2024-02-14T00:43:20;6.60;;;5.30;;
23129;SDS011;11734;51.046;13.778;2024-02-14T00:45:47;7.00;;;5.17;;
23129;SDS011;11734;51.046;13.778;2024-02-14T00:48:15;8.03;;;5.20;;
23129;SDS011;11734;51.046;13.778;2024-02-14T00:50:42;6.07;;;4.50;;
23129;SDS011;11734;51.046;13.778;2024-02-14T00:53:10;7.47;;;4.60;;
23129;SDS011;11734;51.046;13.778;2024-02-14T00:55:38;7.33;;;5.13;;
23129;SDS011;11734;51.046;13.778;2024-02-14T00:58:05;5.23;;;4.10;;
23129;SDS011;11734;51.046;13.778;2024-02-14T01:00:32;6.10;;;4.80;;
23129;SDS011;11734;51.046;13.778;2024-02-14T01:03:02;5.97;;;4.47;;
23129;SDS011;11734;51.046;13.778;2024-02-14T01:05:29;7.40;;;4.40;;
23129;SDS011;11734;51.046;13.778;2024-02-14T01:07:57;6.20;;;4.50;;
23129;SDS011;11734;51.046;13.778;2024-02-14T01:10:24;5.00;;;4.13;;
23129;SDS011;11734;51.046;13.778;2024-02-14T01:12:52;5.70;;;4.53;;
23129;SDS011;11734;51.046;13.778;2024-02-14T01:15:19;5.60;;;4.33;;
23129;SDS011;11734;51.046;13.778;2024-02-14T01:17:48;5.97;;;4.10;;
23129;SDS011;11734;51.046;13.778;2024-02-14T01:20:15;5.93;;;4.50;;
23129;SDS011;11734;51.046;13.778;2024-02-14T01:22:43;5.50;;;4.30;;
23129;SDS011;11734;51.046;13.778;2024-02-14T01:25:12;7.07;;;4.77;;
23129;SDS011;11734;51.046;13.778;2024-02-14T01:27:40;4.93;;;4.27;;
23129;SDS011;11734;51.046;13.778;2024-02-14T01:30:07;4.87;;;3.93;;
23129;SDS011;11734;51.046;13.778;2024-02-14T01:32:36;5.53;;;3.77;;
23129;SDS011;11734;51.046;13.778;2024-02-14T01:35:05;5.60;;;4.00;;
23129;SDS011;11734;51.046;13.778;2024-02-14T01:37:33;5.67;;;3.97;;
23129;SDS011;11734;51.046;13.778;2024-02-14T01:40:00;5.10;;;4.60;;
23129;SDS011;11734;51.046;13.778;2024-02-14T01:42:28;5.00;;;3.80;;
23129;SDS011;11734;51.046;13.778;2024-02-14T01:44:56;5.30;;;3.97;;
23129;SDS011;11734;51.046;13.778;2024-02-14T01:47:23;5.80;;;4.40;;
23129;SDS011;11734;51.046;13.778;2024-02-14T01:49:52;6.60;;;4.20;;
23129;SDS011;11734;51.046;13.778;2024-02-14T01:52:19;7.03;;;4.17;;
23129;SDS011;11734;51.046;13.778;2024-02-14T01:54:48;5.77;;;4.37;;
23129;SDS011;11734;51.046;13.778;2024-02-14T01:57:17;5.83;;;4.40;;
23129;SDS011;11734;51.046;13.778;2024-02-14T01:59:45;6.13;;;4.60;;
23129;SDS011;11734;51.046;13.778;2024-02-14T02:02:15;5.03;;;4.53;;
23129;SDS011;11734;51.046;13.778;2024-02-14T02:04:42;5.53;;;4.10;;
23129;SDS011;11734;51.046;13.778;2024-02-14T02:07:10;5.87;;;4.40;;
23129;SDS011;11734;51.046;13.778;2024-02-14T02:09:37;6.27;;;4.00;;
23129;SDS011;11734;51.046;13.778;2024-02-14T02:12:05;5.87;;;4.20;;
23129;SDS011;11734;51.046;13.778;2024-02-14T02:14:34;6.63;;;4.00;;
23129;SDS011;11734;51.046;13.778;2024-02-14T02:17:02;4.53;;;3.90;;
23129;SDS011;11734;51.046;13.778;2024-02-14T02:19:34;6.87;;;4.50;;
23129;SDS011;11734;51.046;13.778;2024-02-14T02:22:02;5.97;;;3.90;;
23129;SDS011;11734;51.046;13.778;2024-02-14T02:24:31;4.27;;;3.80;;
23129;SDS011;11734;51.046;13.778;2024-02-14T02:26:58;5.73;;;3.77;;
23129;SDS011;11734;51.046;13.778;2024-02-14T02:29:26;6.07;;;3.80;;
23129;SDS011;11734;51.046;13.778;2024-02-14T02:31:53;6.13;;;4.00;;
23129;SDS011;11734;51.046;13.778;2024-02-14T02:34:21;5.13;;;3.67;;
23129;SDS011;11734;51.046;13.778;2024-02-14T02:36:49;5.43;;;3.77;;
23129;SDS011;11734;51.046;13.778;2024-02-14T02:39:17;5.63;;;4.30;;
23129;SDS011;11734;51.046;13.778;2024-02-14T02:41:44;4.60;;;4.00;;
23129;SDS011;11734;51.046;13.778;2024-02-14T02:44:15;5.47;;;4.03;;
23129;SDS011;11734;51.046;13.778;2024-02-14T02:46:42;5.83;;;3.97;;
23129;SDS011;11734;51.046;13.778;2024-02-14T02:49:12;3.80;;;3.50;;
23129;SDS011;11734;51.046;13.778;2024-02-14T02:51:42;6.23;;;3.80;;
23129;SDS011;11734;51.046;13.778;2024-02-14T02:54:10;5.63;;;4.10;;
23129;SDS011;11734;51.046;13.778;2024-02-14T02:56:38;3.90;;;3.50;;
23129;SDS011;11734;51.046;13.778;2024-02-14T02:59:07;4.70;;;4.20;;
23129;SDS011;11734;51.046;13.778;2024-02-14T03:01:35;4.93;;;3.80;;
23129;SDS011;11734;51.046;13.778;2024-02-14T03:04:03;4.70;;;3.80;;
23129;SDS011;11734;51.046;13.778;2024-02-14T03:06:30;5.97;;;3.70;;
23129;SDS011;11734;51.046;13.778;2024-02-14T03:08:58;4.47;;;3.57;;
23129;SDS011;11734;51.046;13.778;2024-02-14T03:11:27;6.33;;;4.00;;
23129;SDS011;11734;51.046;13.778;2024-02-14T03:13:54;5.87;;;4.20;;
23129;SDS011;11734;51.046;13.778;2024-02-14T03:16:21;5.60;;;4.40;;
23129;SDS011;11734;51.046;13.778;2024-02-14T03:18:51;6.03;;;3.97;;
23129;SDS011;11734;51.046;13.778;2024-02-14T03:21:20;4.60;;;4.13;;
23129;SDS011;11734;51.046;13.778;2024-02-14T03:23:48;5.27;;;4.23;;
23129;SDS011;11734;51.046;13.778;2024-02-14T03:26:16;4.80;;;4.03;;
23129;SDS011;11734;51.046;13.778;2024-02-14T03:28:45;5.43;;;3.93;;
23129;SDS011;11734;51.046;13.778;2024-02-14T03:31:13;6.83;;;4.33;;
23129;SDS011;11734;51.046;13.778;2024-02-14T03:33:42;4.73;;;4.10;;
23129;SDS011;11734;51.046;13.778;2024-02-14T03:36:10;4.60;;;4.00;;
23129;SDS011;11734;51.046;13.778;2024-02-14T03:38:38;4.83;;;3.70;;
23129;SDS011;11734;51.046;13.778;2024-02-14T03:41:07;5.40;;;4.00;;
23129;SDS011;11734;51.046;13.778;2024-02-14T03:43:35;5.30;;;3.90;;
23129;SDS011;11734;51.046;13.778;2024-02-14T03:46:02;4.50;;;4.00;;
23129;SDS011;11734;51.046;13.778;2024-02-14T03:48:31;5.97;;;4.20;;
23129;SDS011;11734;51.046;13.778;2024-02-14T03:51:00;4.77;;;3.83;;
23129;SDS011;11734;51.046;13.778;2024-02-14T03:53:27;4.50;;;3.90;;
23129;SDS011;11734;51.046;13.778;2024-02-14T03:55:55;6.20;;;4.10;;
23129;SDS011;11734;51.046;13.778;2024-02-14T03:58:22;5.17;;;3.90;;
23129;SDS011;11734;51.046;13.778;2024-02-14T04:00:50;5.33;;;3.83;;
23129;SDS011;11734;51.046;13.778;2024-02-14T04:03:18;5.07;;;4.00;;
23129;SDS011;11734;51.046;13.778;2024-02-14T04:05:46;6.03;;;4.10;;
23129;SDS011;11734;51.046;13.778;2024-02-14T04:08:14;4.33;;;3.87;;
23129;SDS011;11734;51.046;13.778;2024-02-14T04:10:41;5.20;;;4.10;;
23129;SDS011;11734;51.046;13.778;2024-02-14T04:13:10;5.80;;;3.47;;
23129;SDS011;11734;51.046;13.778;2024-02-14T04:15:37;4.43;;;4.00;;
23129;SDS011;11734;51.046;13.778;2024-02-14T04:18:05;5.70;;;4.13;;
23129;SDS011;11734;51.046;13.778;2024-02-14T04:20:33;5.30;;;4.00;;
23129;SDS011;11734;51.046;13.778;2024-02-14T04:23:01;5.40;;;4.03;;
23129;SDS011;11734;51.046;13.778;2024-02-14T04:25:31;4.60;;;3.90;;
23129;SDS011;11734;51.046;13.778;2024-02-14T04:27:58;5.27;;;4.47;;
23129;SDS011;11734;51.046;13.778;2024-02-14T04:30:26;5.20;;;4.33;;
23129;SDS011;11734;51.046;13.778;2024-02-14T04:32:53;6.20;;;4.30;;
23129;SDS011;11734;51.046;13.778;2024-02-14T04:35:22;6.43;;;4.40;;
23129;SDS011;11734;51.046;13.778;2024-02-14T04:37:50;5.73;;;4.03;;
23129;SDS011;11734;51.046;13.778;2024-02-14T04:40:19;4.17;;;3.53;;
23129;SDS011;11734;51.046;13.778;2024-02-14T04:42:46;6.60;;;4.23;;
23129;SDS011;11734;51.046;13.778;2024-02-14T04:45:14;6.63;;;4.33;;
23129;SDS011;11734;51.046;13.778;2024-02-14T04:47:41;7.27;;;3.87;;
23129;SDS011;11734;51.046;13.778;2024-02-14T04:50:10;7.07;;;4.23;;
23129;SDS011;11734;51.046;13.778;2024-02-14T04:52:37;5.43;;;4.13;;
23129;SDS011;11734;51.046;13.778;2024-02-14T04:55:04;5.80;;;4.10;;
23129;SDS011;11734;51.046;13.778;2024-02-14T04:57:33;5.67;;;4.20;;
23129;SDS011;11734;51.046;13.778;2024-02-14T05:00:02;7.40;;;4.93;;
23129;SDS011;11734;51.046;13.778;2024-02-14T05:02:31;5.43;;;4.67;;
23129;SDS011;11734;51.046;13.778;2024-02-14T05:04:59;6.67;;;4.23;;
23129;SDS011;11734;51.046;13.778;2024-02-14T05:07:27;6.23;;;4.33;;
23129;SDS011;11734;51.046;13.778;2024-02-14T05:09:55;6.63;;;4.10;;
23129;SDS011;11734;51.046;13.778;2024-02-14T05:12:23;5.73;;;4.37;;
23129;SDS011;11734;51.046;13.778;2024-02-14T05:14:50;5.50;;;3.90;;
23129;SDS011;11734;51.046;13.778;2024-02-14T05:17:18;4.27;;;3.87;;
23129;SDS011;11734;51.046;13.778;2024-02-14T05:19:45;6.47;;;4.50;;
23129;SDS011;11734;51.046;13.778;2024-02-14T05:22:13;6.50;;;4.70;;
23129;SDS011;11734;51.046;13.778;2024-02-14T05:24:40;7.03;;;4.67;;
23129;SDS011;11734;51.046;13.778;2024-02-14T05:27:07;6.50;;;4.30;;
23129;SDS011;11734;51.046;13.778;2024-02-14T05:29:35;5.43;;;4.80;;
23129;SDS011;11734;51.046;13.778;2024-02-14T05:32:03;7.10;;;4.47;;
23129;SDS011;11734;51.046;13.778;2024-02-14T05:34:30;5.37;;;4.40;;
23129;SDS011;11734;51.046;13.778;2024-02-14T05:36:58;6.37;;;4.27;;
23129;SDS011;11734;51.046;13.778;2024-02-14T05:39:25;5.43;;;4.20;;
23129;SDS011;11734;51.046;13.778;2024-02-14T05:41:53;6.50;;;4.80;;
23129;SDS011;11734;51.046;13.778;2024-02-14T05:44:21;7.90;;;5.20;;
23129;SDS011;11734;51.046;13.778;2024-02-14T05:46:49;6.07;;;4.33;;
23129;SDS011;11734;51.046;13.778;2024-02-14T05:49:16;9.87;;;4.63;;
23129;SDS011;11734;51.046;13.778;2024-02-14T05:51:44;6.83;;;4.83;;
23129;SDS011;11734;51.046;13.778;2024-02-14T05:54:12;7.47;;;4.43;;
23129;SDS011;11734;51.046;13.778;2024-02-14T05:56:39;7.43;;;4.77;;
23129;SDS011;11734;51.046;13.778;2024-02-14T05:59:07;6.57;;;4.93;;
23129;SDS011;11734;51.046;13.778;2024-02-14T06:01:36;7.17;;;4.63;;
23129;SDS011;11734;51.046;13.778;2024-02-14T06:04:03;6.77;;;4.83;;
23129;SDS011;11734;51.046;13.778;2024-02-14T06:06:31;7.10;;;4.77;;
23129;SDS011;11734;51.046;13.778;2024-02-14T06:08:58;6.23;;;4.43;;
23129;SDS011;11734;51.046;13.778;2024-02-14T06:11:26;7.53;;;4.93;;
23129;SDS011;11734;51.046;13.778;2024-02-14T06:13:53;8.07;;;5.40;;
23129;SDS011;11734;51.046;13.778;2024-02-14T06:16:21;7.83;;;4.97;;
23129;SDS011;11734;51.046;13.778;2024-02-14T06:18:48;7.43;;;5.10;;
23129;SDS011;11734;51.046;13.778;2024-02-14T06:21:16;6.77;;;4.70;;
23129;SDS011;11734;51.046;13.778;2024-02-14T06:23:45;7.50;;;5.37;;
23129;SDS011;11734;51.046;13.778;2024-02-14T06:26:13;7.33;;;4.77;;
23129;SDS011;11734;51.046;13.778;2024-02-14T06:28:40;7.03;;;4.90;;
23129;SDS011;11734;51.046;13.778;2024-02-14T06:31:08;12.17;;;5.20;;
23129;SDS011;11734;51.046;13.778;2024-02-14T06:33:36;9.20;;;5.43;;
23129;SDS011;11734;51.046;13.778;2024-02-14T06:36:04;6.73;;;5.10;;
23129;SDS011;11734;51.046;13.778;2024-02-14T06:38:31;6.47;;;4.77;;
23129;SDS011;11734;51.046;13.778;2024-02-14T06:40:59;7.07;;;4.83;;
23129;SDS011;11734;51.046;13.778;2024-02-14T06:43:26;5.87;;;4.60;;
23129;SDS011;11734;51.046;13.778;2024-02-14T06:45:55;7.87;;;5.30;;
23129;SDS011;11734;51.046;13.778;2024-02-14T06:48:23;7.50;;;4.57;;
23129;SDS011;11734;51.046;13.778;2024-02-14T06:50:51;8.13;;;5.67;;
23129;SDS011;11734;51.046;13.778;2024-02-14T06:53:18;5.43;;;4.57;;
23129;SDS011;11734;51.046;13.778;2024-02-14T06:55:46;7.20;;;4.40;;
23129;SDS011;11734;51.046;13.778;2024-02-14T06:58:13;6.63;;;4.70;;
23129;SDS011;11734;51.046;13.778;2024-02-14T07:00:41;6.73;;;4.53;;
23129;SDS011;11734;51.046;13.778;2024-02-14T07:03:08;8.50;;;4.97;;
23129;SDS011;11734;51.046;13.778;2024-02-14T07:05:36;6.37;;;4.63;;
23129;SDS011;11734;51.046;13.778;2024-02-14T07:08:03;6.67;;;4.80;;
23129;SDS011;11734;51.046;13.778;2024-02-14T07:10:31;8.60;;;5.00;;
23129;SDS011;11734;51.046;13.778;2024-02-14T07:12:59;6.73;;;5.17;;
23129;SDS011;11734;51.046;13.778;2024-02-14T07:15:27;6.50;;;4.10;;
23129;SDS011;11734;51.046;13.778;2024-02-14T07:17:55;7.40;;;4.23;;
23129;SDS011;11734;51.046;13.778;2024-02-14T07:20:24;5.97;;;4.17;;
23129;SDS011;11734;51.046;13.778;2024-02-14T07:22:55;11.13;;;5.37;;
23129;SDS011;11734;51.046;13.778;2024-02-14T07:25:23;6.20;;;4.57;;
23129;SDS011;11734;51.046;13.778;2024-02-14T07:27:51;7.07;;;4.53;;
23129;SDS011;11734;51.046;13.778;2024-02-14T07:30:18;7.77;;;4.70;;
23129;SDS011;11734;51.046;13.778;2024-02-14T07:32:46;6.00;;;4.77;;
23129;SDS011;11734;51.046;13.778;2024-02-14T07:35:14;7.53;;;4.53;;
23129;SDS011;11734;51.046;13.778;2024-02-14T07:37:41;7.33;;;4.33;;
23129;SDS011;11734;51.046;13.778;2024-02-14T07:40:10;6.03;;;4.33;;
23129;SDS011;11734;51.046;13.778;2024-02-14T07:42:40;7.30;;;4.17;;
23129;SDS011;11734;51.046;13.778;2024-02-14T07:45:07;6.60;;;4.27;;
23129;SDS011;11734;51.046;13.778;2024-02-14T07:47:35;5.60;;;3.90;;
23129;SDS011;11734;51.046;13.778;2024-02-14T07:50:03;8.07;;;4.30;;
23129;SDS011;11734;51.046;13.778;2024-02-14T07:52:30;6.53;;;4.07;;
23129;SDS011;11734;51.046;13.778;2024-02-14T07:55:01;6.73;;;4.23;;
23129;SDS011;11734;51.046;13.778;2024-02-14T07:57:29;9.17;;;4.67;;
23129;SDS011;11734;51.046;13.778;2024-02-14T07:59:56;7.53;;;4.40;;
23129;SDS011;11734;51.046;13.778;2024-02-14T08:02:24;7.10;;;4.63;;
23129;SDS011;11734;51.046;13.778;2024-02-14T08:04:54;5.27;;;3.60;;
23129;SDS011;11734;51.046;13.778;2024-02-14T08:07:21;5.00;;;4.20;;
23129;SDS011;11734;51.046;13.778;2024-02-14T08:09:48;6.13;;;4.27;;
23129;SDS011;11734;51.046;13.778;2024-02-14T08:12:16;5.10;;;3.87;;
23129;SDS011;11734;51.046;13.778;2024-02-14T08:14:43;7.07;;;4.10;;
23129;SDS011;11734;51.046;13.778;2024-02-14T08:17:11;7.00;;;4.03;;
23129;SDS011;11734;51.046;13.778;2024-02-14T08:19:38;7.00;;;4.13;;
23129;SDS011;11734;51.046;13.778;2024-02-14T08:22:06;6.27;;;4.27;;
23129;SDS011;11734;51.046;13.778;2024-02-14T08:24:34;6.50;;;4.30;;
23129;SDS011;11734;51.046;13.778;2024-02-14T08:27:01;5.23;;;3.93;;
23129;SDS011;11734;51.046;13.778;2024-02-14T08:29:32;8.17;;;4.37;;
23129;SDS011;11734;51.046;13.778;2024-02-14T08:32:00;4.80;;;3.63;;
23129;SDS011;11734;51.046;13.778;2024-02-14T08:34:28;4.37;;;3.77;;
23129;SDS011;11734;51.046;13.778;2024-02-14T08:36:55;5.00;;;3.80;;
23129;SDS011;11734;51.046;13.778;2024-02-14T08:39:23;5.80;;;4.30;;
23129;SDS011;11734;51.046;13.778;2024-02-14T08:41:50;5.83;;;3.87;;
23129;SDS011;11734;51.046;13.778;2024-02-14T08:44:19;7.03;;;3.60;;
23129;SDS011;11734;51.046;13.778;2024-02-14T08:46:46;5.67;;;3.93;;
23129;SDS011;11734;51.046;13.778;2024-02-14T08:49:15;4.57;;;3.73;;
23129;SDS011;11734;51.046;13.778;2024-02-14T08:51:43;4.70;;;4.00;;
23129;SDS011;11734;51.046;13.778;2024-02-14T08:54:12;5.57;;;3.83;;
23129;SDS011;11734;51.046;13.778;2024-02-14T08:56:42;6.37;;;3.97;;
23129;SDS011;11734;51.046;13.778;2024-02-14T08:59:09;6.77;;;3.90;;
23129;SDS011;11734;51.046;13.778;2024-02-14T09:01:37;5.43;;;4.07;;
23129;SDS011;11734;51.046;13.778;2024-02-14T09:04:05;7.53;;;4.37;;
23129;SDS011;11734;51.046;13.778;2024-02-14T09:06:32;6.00;;;4.20;;
23129;SDS011;11734;51.046;13.778;2024-02-14T09:09:00;4.93;;;3.70;;
23129;SDS011;11734;51.046;13.778;2024-02-14T09:11:28;6.50;;;3.67;;
23129;SDS011;11734;51.046;13.778;2024-02-14T09:13:57;6.80;;;4.13;;
23129;SDS011;11734;51.046;13.778;2024-02-14T09:16:30;5.27;;;3.90;;
23129;SDS011;11734;51.046;13.778;2024-02-14T09:18:58;6.27;;;4.00;;
23129;SDS011;11734;51.046;13.778;2024-02-14T09:21:25;4.60;;;3.70;;
23129;SDS011;11734;51.046;13.778;2024-02-14T09:23:54;5.60;;;4.37;;
23129;SDS011;11734;51.046;13.778;2024-02-14T09:26:22;5.13;;;3.77;;
23129;SDS011;11734;51.046;13.778;2024-02-14T09:28:49;4.97;;;3.93;;
23129;SDS011;11734;51.046;13.778;2024-02-14T09:31:18;6.27;;;4.03;;
23129;SDS011;11734;51.046;13.778;2024-02-14T09:33:46;5.87;;;3.63;;
23129;SDS011;11734;51.046;13.778;2024-02-14T09:36:15;4.40;;;3.80;;
23129;SDS011;11734;51.046;13.778;2024-02-14T09:38:43;4.87;;;3.83;;
23129;SDS011;11734;51.046;13.778;2024-02-14T09:43:47;5.43;;;3.67;;
23129;SDS011;11734;51.046;13.778;2024-02-14T09:46:14;5.30;;;3.70;;
23129;SDS011;11734;51.046;13.778;2024-02-14T09:48:43;6.27;;;4.23;;
23129;SDS011;11734;51.046;13.778;2024-02-14T09:51:12;7.87;;;4.93;;
23129;SDS011;11734;51.046;13.778;2024-02-14T09:53:40;7.43;;;5.00;;
23129;SDS011;11734;51.046;13.778;2024-02-14T09:56:09;5.63;;;3.60;;
23129;SDS011;11734;51.046;13.778;2024-02-14T09:58:37;5.50;;;3.90;;
23129;SDS011;11734;51.046;13.778;2024-02-14T10:01:06;5.90;;;3.97;;
23129;SDS011;11734;51.046;13.778;2024-02-14T10:03:34;5.83;;;4.00;;
23129;SDS011;11734;51.046;13.778;2024-02-14T10:06:02;4.80;;;3.87;;
23129;SDS011;11734;51.046;13.778;2024-02-14T10:08:31;6.17;;;4.50;;
23129;SDS011;11734;51.046;13.778;2024-02-14T10:10:59;5.60;;;4.23;;
23129;SDS011;11734;51.046;13.778;2024-02-14T10:13:30;5.87;;;4.10;;
23129;SDS011;11734;51.046;13.778;2024-02-14T10:15:58;4.10;;;3.40;;
23129;SDS011;11734;51.046;13.778;2024-02-14T10:18:25;7.17;;;4.03;;
23129;SDS011;11734;51.046;13.778;2024-02-14T10:20:56;5.47;;;3.47;;
23129;SDS011;11734;51.046;13.778;2024-02-14T10:23:24;6.53;;;3.93;;
23129;SDS011;11734;51.046;13.778;2024-02-14T10:25:53;5.77;;;3.77;;
23129;SDS011;11734;51.046;13.778;2024-02-14T10:28:22;5.10;;;3.73;;
23129;SDS011;11734;51.046;13.778;2024-02-14T10:31:01;6.97;;;4.47;;
23129;SDS011;11734;51.046;13.778;2024-02-14T10:33:31;8.37;;;3.80;;
23129;SDS011;11734;51.046;13.778;2024-02-14T10:35:59;4.60;;;3.77;;
23129;SDS011;11734;51.046;13.778;2024-02-14T10:38:32;4.67;;;3.73;;
23129;SDS011;11734;51.046;13.778;2024-02-14T10:41:00;5.33;;;3.97;;
23129;SDS011;11734;51.046;13.778;2024-02-14T10:43:28;6.60;;;4.40;;
23129;SDS011;11734;51.046;13.778;2024-02-14T10:45:56;7.90;;;4.80;;
23129;SDS011;11734;51.046;13.778;2024-02-14T10:48:30;6.43;;;4.30;;
23129;SDS011;11734;51.046;13.778;2024-02-14T10:51:02;6.93;;;4.53;;
23129;SDS011;11734;51.046;13.778;2024-02-14T10:53:33;5.87;;;4.60;;
23129;SDS011;11734;51.046;13.778;2024-02-14T10:56:01;6.37;;;4.40;;
23129;SDS011;11734;51.046;13.778;2024-02-14T10:58:29;8.47;;;4.43;;
23129;SDS011;11734;51.046;13.778;2024-02-14T11:00:59;5.73;;;4.37;;
23129;SDS011;11734;51.046;13.778;2024-02-14T11:03:27;7.07;;;4.77;;
23129;SDS011;11734;51.046;13.778;2024-02-14T11:06:00;6.77;;;5.20;;
23129;SDS011;11734;51.046;13.778;2024-02-14T11:08:31;8.03;;;4.67;;
23129;SDS011;11734;51.046;13.778;2024-02-14T11:11:00;5.33;;;4.33;;
23129;SDS011;11734;51.046;13.778;2024-02-14T11:13:31;6.50;;;4.23;;
23129;SDS011;11734;51.046;13.778;2024-02-14T11:16:02;6.43;;;4.03;;
23129;SDS011;11734;51.046;13.778;2024-02-14T11:18:31;5.67;;;4.27;;
23129;SDS011;11734;51.046;13.778;2024-02-14T11:21:02;7.17;;;4.20;;
23129;SDS011;11734;51.046;13.778;2024-02-14T11:23:31;5.67;;;4.00;;
23129;SDS011;11734;51.046;13.778;2024-02-14T11:26:03;8.17;;;4.40;;
23129;SDS011;11734;51.046;13.778;2024-02-14T11:28:31;5.53;;;4.50;;
23129;SDS011;11734;51.046;13.778;2024-02-14T11:31:06;5.30;;;4.17;;
23129;SDS011;11734;51.046;13.778;2024-02-14T11:33:36;7.43;;;4.30;;
23129;SDS011;11734;51.046;13.778;2024-02-14T11:36:07;8.10;;;4.27;;
23129;SDS011;11734;51.046;13.778;2024-02-14T11:38:41;4.80;;;4.07;;
23129;SDS011;11734;51.046;13.778;2024-02-14T11:41:10;5.07;;;4.10;;
23129;SDS011;11734;51.046;13.778;2024-02-14T11:43:37;7.33;;;3.37;;
23129;SDS011;11734;51.046;13.778;2024-02-14T11:46:06;5.73;;;3.97;;
23129;SDS011;11734;51.046;13.778;2024-02-14T11:48:33;7.17;;;4.43;;
23129;SDS011;11734;51.046;13.778;2024-02-14T11:51:04;5.27;;;4.00;;
23129;SDS011;11734;51.046;13.778;2024-02-14T11:53:34;5.03;;;3.87;;
23129;SDS011;11734;51.046;13.778;2024-02-14T11:56:02;7.33;;;3.50;;
23129;SDS011;11734;51.046;13.778;2024-02-14T11:58:31;4.10;;;3.27;;
23129;SDS011;11734;51.046;13.778;2024-02-14T12:00:58;5.77;;;3.67;;
23129;SDS011;11734;51.046;13.778;2024-02-14T12:03:33;5.80;;;4.20;;
23129;SDS011;11734;51.046;13.778;2024-02-14T12:06:01;5.93;;;4.03;;
23129;SDS011;11734;51.046;13.778;2024-02-14T12:08:30;7.57;;;3.90;;
23129;SDS011;11734;51.046;13.778;2024-02-14T12:10:57;6.13;;;4.10;;
23129;SDS011;11734;51.046;13.778;2024-02-14T12:13:25;7.03;;;4.63;;
23129;SDS011;11734;51.046;13.778;2024-02-14T12:15:52;7.07;;;4.90;;
23129;SDS011;11734;51.046;13.778;2024-02-14T12:18:20;7.60;;;4.27;;
23129;SDS011;11734;51.046;13.778;2024-02-14T12:20:48;4.30;;;3.40;;
23129;SDS011;11734;51.046;13.778;2024-02-14T12:23:22;4.50;;;3.47;;
23129;SDS011;11734;51.046;13.778;2024-02-14T12:25:53;4.77;;;3.60;;
23129;SDS011;11734;51.046;13.778;2024-02-14T12:28:20;5.03;;;3.50;;
23129;SDS011;11734;51.046;13.778;2024-02-14T12:30:50;4.37;;;3.40;;
23129;SDS011;11734;51.046;13.778;2024-02-14T12:33:23;5.10;;;3.27;;
23129;SDS011;11734;51.046;13.778;2024-02-14T12:35:55;3.57;;;3.10;;
23129;SDS011;11734;51.046;13.778;2024-02-14T12:38:24;4.77;;;3.00;;
23129;SDS011;11734;51.046;13.778;2024-02-14T12:40:52;4.10;;;2.80;;
23129;SDS011;11734;51.046;13.778;2024-02-14T12:43:22;5.90;;;2.80;;
23129;SDS011;11734;51.046;13.778;2024-02-14T12:45:49;3.33;;;2.60;;
23129;SDS011;11734;51.046;13.778;2024-02-14T12:48:22;5.17;;;2.80;;
23129;SDS011;11734;51.046;13.778;2024-02-14T12:50:54;2.10;;;1.87;;
23129;SDS011;11734;51.046;13.778;2024-02-14T12:53:24;3.43;;;2.10;;
23129;SDS011;11734;51.046;13.778;2024-02-14T12:55:51;2.20;;;1.80;;
23129;SDS011;11734;51.046;13.778;2024-02-14T12:58:19;3.07;;;1.77;;
23129;SDS011;11734;51.046;13.778;2024-02-14T13:00:47;2.80;;;1.70;;
23129;SDS011;11734;51.046;13.778;2024-02-14T13:03:14;2.10;;;1.90;;
23129;SDS011;11734;51.046;13.778;2024-02-14T13:05:44;3.10;;;2.00;;
23129;SDS011;11734;51.046;13.778;2024-02-14T13:08:13;2.90;;;1.70;;
23129;SDS011;11734;51.046;13.778;2024-02-14T13:10:43;1.73;;;1.50;;
23129;SDS011;11734;51.046;13.778;2024-02-14T13:13:11;2.43;;;1.60;;
23129;SDS011;11734;51.046;13.778;2024-02-14T13:15:38;2.47;;;1.40;;
23129;SDS011;11734;51.046;13.778;2024-02-14T13:18:06;1.50;;;1.40;;
23129;SDS011;11734;51.046;13.778;2024-02-14T13:20:34;1.77;;;1.33;;
23129;SDS011;11734;51.046;13.778;2024-02-14T13:23:02;2.23;;;1.53;;
23129;SDS011;11734;51.046;13.778;2024-02-14T13:25:30;2.40;;;1.40;;
23129;SDS011;11734;51.046;13.778;2024-02-14T13:27:57;2.47;;;1.57;;
23129;SDS011;11734;51.046;13.778;2024-02-14T13:30:25;2.47;;;1.70;;
23129;SDS011;11734;51.046;13.778;2024-02-14T13:32:52;3.13;;;1.83;;
23129;SDS011;11734;51.046;13.778;2024-02-14T13:35:20;1.67;;;1.30;;
23129;SDS011;11734;51.046;13.778;2024-02-14T13:37:47;1.60;;;1.50;;
23129;SDS011;11734;51.046;13.778;2024-02-14T13:40:15;1.50;;;1.40;;
23129;SDS011;11734;51.046;13.778;2024-02-14T13:42:43;4.17;;;1.70;;
23129;SDS011;11734;51.046;13.778;2024-02-14T13:45:10;1.37;;;1.20;;
23129;SDS011;11734;51.046;13.778;2024-02-14T13:47:38;2.43;;;1.60;;
23129;SDS011;11734;51.046;13.778;2024-02-14T13:50:07;3.43;;;1.73;;
23129;SDS011;11734;51.046;13.778;2024-02-14T13:52:36;2.00;;;1.57;;
23129;SDS011;11734;51.046;13.778;2024-02-14T13:55:04;3.67;;;1.60;;
23129;SDS011;11734;51.046;13.778;2024-02-14T13:57:37;2.77;;;1.50;;
23129;SDS011;11734;51.046;13.778;2024-02-14T14:00:06;3.47;;;1.60;;
23129;SDS011;11734;51.046;13.778;2024-02-14T14:02:38;5.07;;;2.77;;
23129;SDS011;11734;51.046;13.778;2024-02-14T14:05:09;2.83;;;1.97;;
23129;SDS011;11734;51.046;13.778;2024-02-14T14:07:40;2.60;;;1.63;;
23129;SDS011;11734;51.046;13.778;2024-02-14T14:10:23;2.70;;;1.67;;
23129;SDS011;11734;51.046;13.778;2024-02-14T14:12:53;1.40;;;1.30;;
23129;SDS011;11734;51.046;13.778;2024-02-14T14:15:21;2.80;;;1.60;;
23129;SDS011;11734;51.046;13.778;2024-02-14T14:17:50;2.87;;;1.93;;
23129;SDS011;11734;51.046;13.778;2024-02-14T14:20:18;2.67;;;1.70;;
23129;SDS011;11734;51.046;13.778;2024-02-14T14:22:47;2.60;;;1.97;;
23129;SDS011;11734;51.046;13.778;2024-02-14T14:25:14;1.90;;;1.70;;
23129;SDS011;11734;51.046;13.778;2024-02-14T14:27:42;3.10;;;1.73;;
23129;SDS011;11734;51.046;13.778;2024-02-14T14:30:10;1.60;;;1.50;;
23129;SDS011;11734;51.046;13.778;2024-02-14T14:32:38;2.17;;;1.73;;
23129;SDS011;11734;51.046;13.778;2024-02-14T14:35:09;2.87;;;1.63;;
23129;SDS011;11734;51.046;13.778;2024-02-14T14:37:37;2.63;;;2.23;;
23129;SDS011;11734;51.046;13.778;2024-02-14T14:40:05;2.57;;;1.67;;
23129;SDS011;11734;51.046;13.778;2024-02-14T14:42:35;2.33;;;1.63;;